sensor_id;sensor_type;location;lat;lon;timestamp;P1;durP1;ratioP1;P2;durP2;ratioP2
6828;SDS011;17930;48.592;8.868;2023-01-20T00:01:02;13.65;;;7.32;;
6828;SDS011;17930;48.592;8.868;2023-01-20T00:03:28;10.95;;;6.97;;
6828;SDS011;17930;48.592;8.868;2023-01-20T00:05:55;11.13;;;6.50;;
6828;SDS011;17930;48.592;8.868;2023-01-20T00:08:22;18.58;;;6.97;;
6828;SDS011;17930;48.592;8.868;2023-01-20T00:10:49;10.00;;;5.85;;
6828;SDS011;17930;48.592;8.868;2023-01-20T00:13:15;11.68;;;6.25;;
6828;SDS011;17930;48.592;8.868;2023-01-20T00:15:42;11.40;;;6.07;;
6828;SDS011;17930;48.592;8.868;2023-01-20T00:18:10;11.10;;;6.85;;
6828;SDS011;17930;48.592;8.868;2023-01-20T00:20:37;14.43;;;6.47;;
6828;SDS011;17930;48.592;8.868;2023-01-20T00:23:03;12.27;;;6.45;;
6828;SDS011;17930;48.592;8.868;2023-01-20T00:25:30;11.50;;;6.80;;
6828;SDS011;17930;48.592;8.868;2023-01-20T00:27:57;11.18;;;6.43;;
6828;SDS011;17930;48.592;8.868;2023-01-20T00:30:23;9.63;;;6.03;;
6828;SDS011;17930;48.592;8.868;2023-01-20T00:32:50;13.80;;;6.78;;
6828;SDS011;17930;48.592;8.868;2023-01-20T00:35:18;9.98;;;6.05;;
6828;SDS011;17930;48.592;8.868;2023-01-20T00:37:44;14.73;;;7.38;;
6828;SDS011;17930;48.592;8.868;2023-01-20T00:40:11;11.55;;;6.38;;
6828;SDS011;17930;48.592;8.868;2023-01-20T00:42:38;12.40;;;7.03;;
6828;SDS011;17930;48.592;8.868;2023-01-20T00:45:05;14.18;;;6.95;;
6828;SDS011;17930;48.592;8.868;2023-01-20T00:47:32;11.70;;;6.47;;
6828;SDS011;17930;48.592;8.868;2023-01-20T00:49:59;12.00;;;6.38;;
6828;SDS011;17930;48.592;8.868;2023-01-20T00:52:26;13.07;;;6.85;;
6828;SDS011;17930;48.592;8.868;2023-01-20T00:54:53;14.77;;;6.60;;
6828;SDS011;17930;48.592;8.868;2023-01-20T00:57:20;11.32;;;7.15;;
6828;SDS011;17930;48.592;8.868;2023-01-20T00:59:46;12.95;;;7.00;;
6828;SDS011;17930;48.592;8.868;2023-01-20T01:02:13;12.05;;;7.50;;
6828;SDS011;17930;48.592;8.868;2023-01-20T01:04:40;14.35;;;8.00;;
6828;SDS011;17930;48.592;8.868;2023-01-20T01:07:07;14.55;;;7.10;;
6828;SDS011;17930;48.592;8.868;2023-01-20T01:09:35;13.27;;;7.00;;
6828;SDS011;17930;48.592;8.868;2023-01-20T01:12:02;15.13;;;7.30;;
6828;SDS011;17930;48.592;8.868;2023-01-20T01:14:29;16.02;;;6.78;;
6828;SDS011;17930;48.592;8.868;2023-01-20T01:16:56;13.48;;;7.75;;
6828;SDS011;17930;48.592;8.868;2023-01-20T01:19:23;16.33;;;7.03;;
6828;SDS011;17930;48.592;8.868;2023-01-20T01:21:50;12.85;;;6.18;;
6828;SDS011;17930;48.592;8.868;2023-01-20T01:24:16;16.00;;;6.93;;
6828;SDS011;17930;48.592;8.868;2023-01-20T01:26:44;11.25;;;6.38;;
6828;SDS011;17930;48.592;8.868;2023-01-20T01:29:11;11.10;;;6.60;;
6828;SDS011;17930;48.592;8.868;2023-01-20T01:31:37;11.07;;;6.53;;
6828;SDS011;17930;48.592;8.868;2023-01-20T01:34:04;9.88;;;5.85;;
6828;SDS011;17930;48.592;8.868;2023-01-20T01:36:31;12.40;;;6.68;;
6828;SDS011;17930;48.592;8.868;2023-01-20T01:38:57;10.18;;;6.70;;
6828;SDS011;17930;48.592;8.868;2023-01-20T01:41:24;13.73;;;6.68;;
6828;SDS011;17930;48.592;8.868;2023-01-20T01:44:00;10.68;;;6.63;;
6828;SDS011;17930;48.592;8.868;2023-01-20T01:46:29;12.77;;;6.03;;
6828;SDS011;17930;48.592;8.868;2023-01-20T01:48:55;11.60;;;6.50;;
6828;SDS011;17930;48.592;8.868;2023-01-20T01:51:25;10.18;;;6.03;;
6828;SDS011;17930;48.592;8.868;2023-01-20T01:53:55;12.25;;;6.97;;
6828;SDS011;17930;48.592;8.868;2023-01-20T01:56:25;10.00;;;6.55;;
6828;SDS011;17930;48.592;8.868;2023-01-20T01:58:54;14.30;;;5.85;;
6828;SDS011;17930;48.592;8.868;2023-01-20T02:01:25;10.68;;;5.90;;
6828;SDS011;17930;48.592;8.868;2023-01-20T02:03:53;8.90;;;5.25;;
6828;SDS011;17930;48.592;8.868;2023-01-20T02:06:24;13.93;;;6.20;;
6828;SDS011;17930;48.592;8.868;2023-01-20T02:08:54;11.48;;;6.30;;
6828;SDS011;17930;48.592;8.868;2023-01-20T02:11:21;10.98;;;6.22;;
6828;SDS011;17930;48.592;8.868;2023-01-20T02:13:48;13.30;;;6.82;;
6828;SDS011;17930;48.592;8.868;2023-01-20T02:16:16;10.43;;;6.00;;
6828;SDS011;17930;48.592;8.868;2023-01-20T02:18:54;12.20;;;6.15;;
6828;SDS011;17930;48.592;8.868;2023-01-20T02:30:51;9.43;;;5.57;;
6828;SDS011;17930;48.592;8.868;2023-01-20T02:33:34;10.75;;;5.75;;
6828;SDS011;17930;48.592;8.868;2023-01-20T02:36:07;11.27;;;5.80;;
6828;SDS011;17930;48.592;8.868;2023-01-20T02:38:38;10.75;;;6.00;;
6828;SDS011;17930;48.592;8.868;2023-01-20T02:41:10;10.57;;;5.85;;
6828;SDS011;17930;48.592;8.868;2023-01-20T02:43:43;10.13;;;5.80;;
6828;SDS011;17930;48.592;8.868;2023-01-20T02:46:15;15.85;;;6.50;;
6828;SDS011;17930;48.592;8.868;2023-01-20T02:48:51;9.30;;;5.47;;
6828;SDS011;17930;48.592;8.868;2023-01-20T02:51:21;8.82;;;4.95;;
6828;SDS011;17930;48.592;8.868;2023-01-20T02:53:52;10.55;;;5.65;;
6828;SDS011;17930;48.592;8.868;2023-01-20T02:56:22;8.32;;;5.32;;
6828;SDS011;17930;48.592;8.868;2023-01-20T02:58:54;10.35;;;5.65;;
6828;SDS011;17930;48.592;8.868;2023-01-20T03:01:25;7.88;;;4.80;;
6828;SDS011;17930;48.592;8.868;2023-01-20T03:03:58;10.93;;;5.32;;
6828;SDS011;17930;48.592;8.868;2023-01-20T03:06:29;10.43;;;4.97;;
6828;SDS011;17930;48.592;8.868;2023-01-20T03:09:02;7.35;;;4.72;;
6828;SDS011;17930;48.592;8.868;2023-01-20T03:11:32;8.05;;;5.15;;
6828;SDS011;17930;48.592;8.868;2023-01-20T03:14:02;8.13;;;4.70;;
6828;SDS011;17930;48.592;8.868;2023-01-20T03:16:31;9.60;;;4.22;;
6828;SDS011;17930;48.592;8.868;2023-01-20T03:18:59;6.75;;;4.18;;
6828;SDS011;17930;48.592;8.868;2023-01-20T03:21:26;8.30;;;4.78;;
6828;SDS011;17930;48.592;8.868;2023-01-20T03:23:53;7.63;;;4.70;;
6828;SDS011;17930;48.592;8.868;2023-01-20T03:26:25;9.05;;;5.25;;
6828;SDS011;17930;48.592;8.868;2023-01-20T03:28:51;9.68;;;4.70;;
6828;SDS011;17930;48.592;8.868;2023-01-20T03:31:19;11.05;;;6.10;;
6828;SDS011;17930;48.592;8.868;2023-01-20T03:33:48;12.88;;;6.07;;
6828;SDS011;17930;48.592;8.868;2023-01-20T03:36:19;7.95;;;4.85;;
6828;SDS011;17930;48.592;8.868;2023-01-20T03:38:48;9.45;;;5.20;;
6828;SDS011;17930;48.592;8.868;2023-01-20T03:41:16;12.48;;;6.15;;
6828;SDS011;17930;48.592;8.868;2023-01-20T03:43:56;14.60;;;6.15;;
6828;SDS011;17930;48.592;8.868;2023-01-20T03:46:34;12.25;;;6.32;;
6828;SDS011;17930;48.592;8.868;2023-01-20T03:49:07;10.82;;;5.78;;
6828;SDS011;17930;48.592;8.868;2023-01-20T03:51:43;11.98;;;5.78;;
6828;SDS011;17930;48.592;8.868;2023-01-20T03:54:17;10.20;;;5.57;;
6828;SDS011;17930;48.592;8.868;2023-01-20T03:56:50;9.57;;;6.30;;
6828;SDS011;17930;48.592;8.868;2023-01-20T03:59:21;9.43;;;5.57;;
6828;SDS011;17930;48.592;8.868;2023-01-20T04:01:48;11.05;;;6.05;;
6828;SDS011;17930;48.592;8.868;2023-01-20T04:04:18;11.38;;;5.15;;
6828;SDS011;17930;48.592;8.868;2023-01-20T04:06:46;9.65;;;5.80;;
6828;SDS011;17930;48.592;8.868;2023-01-20T04:09:17;12.98;;;6.05;;
6828;SDS011;17930;48.592;8.868;2023-01-20T04:11:48;11.43;;;5.68;;
6828;SDS011;17930;48.592;8.868;2023-01-20T04:14:15;10.65;;;5.50;;
6828;SDS011;17930;48.592;8.868;2023-01-20T04:16:42;10.02;;;5.60;;
6828;SDS011;17930;48.592;8.868;2023-01-20T04:19:16;9.38;;;4.95;;
6828;SDS011;17930;48.592;8.868;2023-01-20T04:21:43;9.70;;;5.00;;
6828;SDS011;17930;48.592;8.868;2023-01-20T04:24:15;8.90;;;4.93;;
6828;SDS011;17930;48.592;8.868;2023-01-20T04:26:46;8.38;;;5.35;;
6828;SDS011;17930;48.592;8.868;2023-01-20T04:29:13;10.13;;;5.18;;
6828;SDS011;17930;48.592;8.868;2023-01-20T04:31:39;6.22;;;4.93;;
6828;SDS011;17930;48.592;8.868;2023-01-20T04:34:06;8.02;;;5.40;;
6828;SDS011;17930;48.592;8.868;2023-01-20T04:36:36;9.60;;;5.45;;
6828;SDS011;17930;48.592;8.868;2023-01-20T04:39:03;10.88;;;5.47;;
6828;SDS011;17930;48.592;8.868;2023-01-20T04:41:31;7.57;;;5.47;;
6828;SDS011;17930;48.592;8.868;2023-01-20T04:43:57;11.10;;;5.68;;
6828;SDS011;17930;48.592;8.868;2023-01-20T04:46:24;9.45;;;5.40;;
6828;SDS011;17930;48.592;8.868;2023-01-20T04:48:50;8.40;;;4.50;;
6828;SDS011;17930;48.592;8.868;2023-01-20T04:51:17;12.45;;;4.88;;
6828;SDS011;17930;48.592;8.868;2023-01-20T04:53:43;9.10;;;4.72;;
6828;SDS011;17930;48.592;8.868;2023-01-20T04:56:10;7.43;;;4.40;;
6828;SDS011;17930;48.592;8.868;2023-01-20T04:58:39;8.35;;;4.55;;
6828;SDS011;17930;48.592;8.868;2023-01-20T05:01:07;10.27;;;5.05;;
6828;SDS011;17930;48.592;8.868;2023-01-20T05:03:35;8.38;;;5.22;;
6828;SDS011;17930;48.592;8.868;2023-01-20T05:06:01;8.27;;;4.93;;
6828;SDS011;17930;48.592;8.868;2023-01-20T05:08:30;7.45;;;4.55;;
6828;SDS011;17930;48.592;8.868;2023-01-20T05:10:57;7.38;;;4.60;;
6828;SDS011;17930;48.592;8.868;2023-01-20T05:13:23;10.43;;;5.38;;
6828;SDS011;17930;48.592;8.868;2023-01-20T05:15:51;10.85;;;5.05;;
6828;SDS011;17930;48.592;8.868;2023-01-20T05:18:18;9.20;;;5.18;;
6828;SDS011;17930;48.592;8.868;2023-01-20T05:20:45;8.82;;;4.63;;
6828;SDS011;17930;48.592;8.868;2023-01-20T05:23:11;10.20;;;4.93;;
6828;SDS011;17930;48.592;8.868;2023-01-20T05:25:38;6.45;;;4.22;;
6828;SDS011;17930;48.592;8.868;2023-01-20T05:28:05;8.98;;;5.20;;
6828;SDS011;17930;48.592;8.868;2023-01-20T05:30:32;9.05;;;5.07;;
6828;SDS011;17930;48.592;8.868;2023-01-20T05:33:00;10.23;;;5.43;;
6828;SDS011;17930;48.592;8.868;2023-01-20T05:35:27;9.52;;;5.53;;
6828;SDS011;17930;48.592;8.868;2023-01-20T05:37:54;11.15;;;5.75;;
6828;SDS011;17930;48.592;8.868;2023-01-20T05:40:21;8.63;;;5.43;;
6828;SDS011;17930;48.592;8.868;2023-01-20T05:42:48;13.05;;;5.95;;
6828;SDS011;17930;48.592;8.868;2023-01-20T05:45:14;15.15;;;6.65;;
6828;SDS011;17930;48.592;8.868;2023-01-20T05:47:41;13.88;;;6.57;;
6828;SDS011;17930;48.592;8.868;2023-01-20T05:50:10;15.70;;;5.93;;
6828;SDS011;17930;48.592;8.868;2023-01-20T05:52:37;11.52;;;6.35;;
6828;SDS011;17930;48.592;8.868;2023-01-20T05:55:04;10.85;;;6.05;;
6828;SDS011;17930;48.592;8.868;2023-01-20T05:57:30;14.45;;;6.75;;
6828;SDS011;17930;48.592;8.868;2023-01-20T05:59:57;10.30;;;5.85;;
6828;SDS011;17930;48.592;8.868;2023-01-20T06:02:24;16.48;;;6.97;;
6828;SDS011;17930;48.592;8.868;2023-01-20T06:04:50;11.77;;;6.35;;
6828;SDS011;17930;48.592;8.868;2023-01-20T06:07:18;10.10;;;6.75;;
6828;SDS011;17930;48.592;8.868;2023-01-20T06:09:45;11.73;;;6.50;;
6828;SDS011;17930;48.592;8.868;2023-01-20T06:12:11;11.63;;;7.03;;
6828;SDS011;17930;48.592;8.868;2023-01-20T06:14:38;14.35;;;7.30;;
6828;SDS011;17930;48.592;8.868;2023-01-20T06:17:05;14.02;;;7.20;;
6828;SDS011;17930;48.592;8.868;2023-01-20T06:19:31;11.75;;;6.80;;
6828;SDS011;17930;48.592;8.868;2023-01-20T06:21:58;16.73;;;8.02;;
6828;SDS011;17930;48.592;8.868;2023-01-20T06:24:26;13.88;;;8.68;;
6828;SDS011;17930;48.592;8.868;2023-01-20T06:26:53;14.98;;;8.57;;
6828;SDS011;17930;48.592;8.868;2023-01-20T06:29:19;17.00;;;8.48;;
6828;SDS011;17930;48.592;8.868;2023-01-20T06:31:46;11.57;;;7.18;;
6828;SDS011;17930;48.592;8.868;2023-01-20T06:34:13;12.00;;;7.07;;
6828;SDS011;17930;48.592;8.868;2023-01-20T06:36:40;13.05;;;8.15;;
6828;SDS011;17930;48.592;8.868;2023-01-20T06:39:06;12.90;;;6.38;;
6828;SDS011;17930;48.592;8.868;2023-01-20T06:41:34;14.73;;;7.45;;
6828;SDS011;17930;48.592;8.868;2023-01-20T06:44:01;12.95;;;7.60;;
6828;SDS011;17930;48.592;8.868;2023-01-20T06:46:28;12.73;;;6.75;;
6828;SDS011;17930;48.592;8.868;2023-01-20T06:48:54;16.13;;;7.93;;
6828;SDS011;17930;48.592;8.868;2023-01-20T06:51:24;11.32;;;6.68;;
6828;SDS011;17930;48.592;8.868;2023-01-20T06:53:52;15.68;;;8.43;;
6828;SDS011;17930;48.592;8.868;2023-01-20T06:56:19;12.80;;;7.55;;
6828;SDS011;17930;48.592;8.868;2023-01-20T06:58:48;15.38;;;8.85;;
6828;SDS011;17930;48.592;8.868;2023-01-20T07:01:16;13.18;;;7.65;;
6828;SDS011;17930;48.592;8.868;2023-01-20T07:03:45;12.55;;;8.07;;
6828;SDS011;17930;48.592;8.868;2023-01-20T07:06:13;16.92;;;8.27;;
6828;SDS011;17930;48.592;8.868;2023-01-20T07:08:42;13.90;;;8.32;;
6828;SDS011;17930;48.592;8.868;2023-01-20T07:11:10;14.73;;;8.32;;
6828;SDS011;17930;48.592;8.868;2023-01-20T07:13:37;9.95;;;6.55;;
6828;SDS011;17930;48.592;8.868;2023-01-20T07:16:05;12.15;;;7.07;;
6828;SDS011;17930;48.592;8.868;2023-01-20T07:18:32;13.82;;;7.78;;
6828;SDS011;17930;48.592;8.868;2023-01-20T07:20:59;14.15;;;7.60;;
6828;SDS011;17930;48.592;8.868;2023-01-20T07:23:27;15.77;;;8.07;;
6828;SDS011;17930;48.592;8.868;2023-01-20T07:25:56;13.10;;;7.25;;
6828;SDS011;17930;48.592;8.868;2023-01-20T07:28:23;10.48;;;6.65;;
6828;SDS011;17930;48.592;8.868;2023-01-20T07:30:50;12.98;;;7.57;;
6828;SDS011;17930;48.592;8.868;2023-01-20T07:33:18;13.00;;;7.47;;
6828;SDS011;17930;48.592;8.868;2023-01-20T07:35:49;14.57;;;7.70;;
6828;SDS011;17930;48.592;8.868;2023-01-20T07:38:16;12.57;;;7.25;;
6828;SDS011;17930;48.592;8.868;2023-01-20T07:40:43;13.55;;;7.00;;
6828;SDS011;17930;48.592;8.868;2023-01-20T07:43:10;14.98;;;7.13;;
6828;SDS011;17930;48.592;8.868;2023-01-20T07:45:36;15.85;;;8.27;;
6828;SDS011;17930;48.592;8.868;2023-01-20T07:48:03;12.95;;;7.82;;
6828;SDS011;17930;48.592;8.868;2023-01-20T07:50:33;17.00;;;9.27;;
6828;SDS011;17930;48.592;8.868;2023-01-20T07:53:00;15.27;;;8.65;;
6828;SDS011;17930;48.592;8.868;2023-01-20T07:55:27;15.85;;;8.90;;
6828;SDS011;17930;48.592;8.868;2023-01-20T07:57:54;24.13;;;10.02;;
6828;SDS011;17930;48.592;8.868;2023-01-20T08:00:21;14.82;;;8.25;;
6828;SDS011;17930;48.592;8.868;2023-01-20T08:02:48;17.52;;;10.23;;
6828;SDS011;17930;48.592;8.868;2023-01-20T08:05:14;24.48;;;10.75;;
6828;SDS011;17930;48.592;8.868;2023-01-20T08:07:43;20.10;;;9.50;;
6828;SDS011;17930;48.592;8.868;2023-01-20T08:10:09;17.15;;;11.40;;
6828;SDS011;17930;48.592;8.868;2023-01-20T08:12:36;20.88;;;11.65;;
6828;SDS011;17930;48.592;8.868;2023-01-20T08:15:03;16.33;;;9.50;;
6828;SDS011;17930;48.592;8.868;2023-01-20T08:17:30;15.88;;;9.77;;
6828;SDS011;17930;48.592;8.868;2023-01-20T08:19:57;15.45;;;8.65;;
6828;SDS011;17930;48.592;8.868;2023-01-20T08:22:24;16.25;;;9.65;;
6828;SDS011;17930;48.592;8.868;2023-01-20T08:24:52;16.88;;;8.98;;
6828;SDS011;17930;48.592;8.868;2023-01-20T08:27:18;16.67;;;8.77;;
6828;SDS011;17930;48.592;8.868;2023-01-20T08:29:45;13.55;;;8.10;;
6828;SDS011;17930;48.592;8.868;2023-01-20T08:32:12;15.77;;;9.30;;
6828;SDS011;17930;48.592;8.868;2023-01-20T08:34:38;14.63;;;8.32;;
6828;SDS011;17930;48.592;8.868;2023-01-20T08:37:05;12.30;;;6.97;;
6828;SDS011;17930;48.592;8.868;2023-01-20T08:39:32;15.35;;;8.05;;
6828;SDS011;17930;48.592;8.868;2023-01-20T08:42:00;14.75;;;8.73;;
6828;SDS011;17930;48.592;8.868;2023-01-20T08:44:27;13.15;;;7.60;;
6828;SDS011;17930;48.592;8.868;2023-01-20T08:46:54;16.67;;;9.35;;
6828;SDS011;17930;48.592;8.868;2023-01-20T08:49:23;13.35;;;8.02;;
6828;SDS011;17930;48.592;8.868;2023-01-20T08:51:51;14.75;;;9.45;;
6828;SDS011;17930;48.592;8.868;2023-01-20T08:54:17;14.32;;;8.60;;
6828;SDS011;17930;48.592;8.868;2023-01-20T08:56:44;15.13;;;7.88;;
6828;SDS011;17930;48.592;8.868;2023-01-20T08:59:12;15.05;;;8.65;;
6828;SDS011;17930;48.592;8.868;2023-01-20T09:01:39;14.93;;;8.38;;
6828;SDS011;17930;48.592;8.868;2023-01-20T09:04:07;18.83;;;9.23;;
6828;SDS011;17930;48.592;8.868;2023-01-20T09:06:37;12.55;;;7.03;;
6828;SDS011;17930;48.592;8.868;2023-01-20T09:09:05;16.38;;;8.70;;
6828;SDS011;17930;48.592;8.868;2023-01-20T09:11:32;15.25;;;8.20;;
6828;SDS011;17930;48.592;8.868;2023-01-20T09:13:59;14.18;;;6.85;;
6828;SDS011;17930;48.592;8.868;2023-01-20T09:16:27;13.70;;;6.90;;
6828;SDS011;17930;48.592;8.868;2023-01-20T09:18:53;12.13;;;7.13;;
6828;SDS011;17930;48.592;8.868;2023-01-20T09:21:20;12.63;;;6.85;;
6828;SDS011;17930;48.592;8.868;2023-01-20T09:23:47;11.73;;;6.88;;
6828;SDS011;17930;48.592;8.868;2023-01-20T09:26:14;13.20;;;7.75;;
6828;SDS011;17930;48.592;8.868;2023-01-20T09:28:40;11.98;;;6.38;;
6828;SDS011;17930;48.592;8.868;2023-01-20T09:31:10;12.35;;;6.78;;
6828;SDS011;17930;48.592;8.868;2023-01-20T09:33:38;14.82;;;6.90;;
6828;SDS011;17930;48.592;8.868;2023-01-20T09:36:07;14.10;;;7.45;;
6828;SDS011;17930;48.592;8.868;2023-01-20T09:38:35;14.82;;;7.82;;
6828;SDS011;17930;48.592;8.868;2023-01-20T09:41:24;12.23;;;7.18;;
6828;SDS011;17930;48.592;8.868;2023-01-20T09:44:14;12.52;;;6.40;;
6828;SDS011;17930;48.592;8.868;2023-01-20T09:46:53;11.25;;;6.10;;
6828;SDS011;17930;48.592;8.868;2023-01-20T09:49:48;10.15;;;5.50;;
6828;SDS011;17930;48.592;8.868;2023-01-20T09:52:52;13.45;;;5.85;;
6828;SDS011;17930;48.592;8.868;2023-01-20T09:55:30;14.85;;;8.07;;
6828;SDS011;17930;48.592;8.868;2023-01-20T09:58:04;11.98;;;6.72;;
6828;SDS011;17930;48.592;8.868;2023-01-20T10:00:38;11.45;;;6.10;;
6828;SDS011;17930;48.592;8.868;2023-01-20T10:03:10;11.10;;;7.20;;
6828;SDS011;17930;48.592;8.868;2023-01-20T10:05:42;12.02;;;5.88;;
6828;SDS011;17930;48.592;8.868;2023-01-20T10:08:14;9.95;;;5.97;;
6828;SDS011;17930;48.592;8.868;2023-01-20T10:10:47;9.40;;;5.18;;
6828;SDS011;17930;48.592;8.868;2023-01-20T10:13:19;9.18;;;5.60;;
6828;SDS011;17930;48.592;8.868;2023-01-20T10:15:49;12.50;;;5.82;;
6828;SDS011;17930;48.592;8.868;2023-01-20T10:18:20;9.10;;;5.38;;
6828;SDS011;17930;48.592;8.868;2023-01-20T10:20:54;9.32;;;5.72;;
6828;SDS011;17930;48.592;8.868;2023-01-20T10:23:26;10.40;;;5.70;;
6828;SDS011;17930;48.592;8.868;2023-01-20T10:25:58;8.07;;;5.45;;
6828;SDS011;17930;48.592;8.868;2023-01-20T10:28:34;9.75;;;4.78;;
6828;SDS011;17930;48.592;8.868;2023-01-20T10:31:04;9.98;;;5.32;;
6828;SDS011;17930;48.592;8.868;2023-01-20T10:33:32;6.55;;;4.72;;
6828;SDS011;17930;48.592;8.868;2023-01-20T10:36:02;8.63;;;4.57;;
6828;SDS011;17930;48.592;8.868;2023-01-20T10:38:33;7.35;;;3.85;;
6828;SDS011;17930;48.592;8.868;2023-01-20T10:41:17;8.65;;;4.43;;
6828;SDS011;17930;48.592;8.868;2023-01-20T10:43:52;6.57;;;4.70;;
6828;SDS011;17930;48.592;8.868;2023-01-20T10:46:27;7.80;;;3.78;;
6828;SDS011;17930;48.592;8.868;2023-01-20T10:49:15;7.22;;;4.45;;
6828;SDS011;17930;48.592;8.868;2023-01-20T10:51:59;7.70;;;4.18;;
6828;SDS011;17930;48.592;8.868;2023-01-20T10:54:37;6.32;;;4.13;;
6828;SDS011;17930;48.592;8.868;2023-01-20T10:57:12;8.15;;;4.43;;
6828;SDS011;17930;48.592;8.868;2023-01-20T10:59:41;6.60;;;3.92;;
6828;SDS011;17930;48.592;8.868;2023-01-20T11:02:13;6.82;;;4.20;;
6828;SDS011;17930;48.592;8.868;2023-01-20T11:04:43;7.72;;;4.80;;
6828;SDS011;17930;48.592;8.868;2023-01-20T11:07:14;8.38;;;4.90;;
6828;SDS011;17930;48.592;8.868;2023-01-20T11:09:42;7.15;;;4.30;;
6828;SDS011;17930;48.592;8.868;2023-01-20T11:12:11;6.78;;;4.28;;
6828;SDS011;17930;48.592;8.868;2023-01-20T11:14:40;7.05;;;4.47;;
6828;SDS011;17930;48.592;8.868;2023-01-20T11:17:11;9.05;;;4.70;;
6828;SDS011;17930;48.592;8.868;2023-01-20T11:19:47;9.80;;;4.72;;
6828;SDS011;17930;48.592;8.868;2023-01-20T11:22:20;5.82;;;3.95;;
6828;SDS011;17930;48.592;8.868;2023-01-20T11:24:53;8.85;;;4.45;;
6828;SDS011;17930;48.592;8.868;2023-01-20T11:27:21;8.07;;;4.20;;
6828;SDS011;17930;48.592;8.868;2023-01-20T11:29:52;10.30;;;4.47;;
6828;SDS011;17930;48.592;8.868;2023-01-20T11:32:23;7.75;;;4.22;;
6828;SDS011;17930;48.592;8.868;2023-01-20T11:34:52;7.40;;;4.03;;
6828;SDS011;17930;48.592;8.868;2023-01-20T11:37:21;5.93;;;3.80;;
6828;SDS011;17930;48.592;8.868;2023-01-20T11:39:58;5.93;;;4.20;;
6828;SDS011;17930;48.592;8.868;2023-01-20T11:42:26;10.33;;;3.97;;
6828;SDS011;17930;48.592;8.868;2023-01-20T11:44:56;10.70;;;3.93;;
6828;SDS011;17930;48.592;8.868;2023-01-20T11:47:25;7.47;;;4.50;;
6828;SDS011;17930;48.592;8.868;2023-01-20T11:50:06;7.23;;;3.93;;
6828;SDS011;17930;48.592;8.868;2023-01-20T11:52:46;6.97;;;3.87;;
6828;SDS011;17930;48.592;8.868;2023-01-20T11:55:13;8.97;;;4.60;;
6828;SDS011;17930;48.592;8.868;2023-01-20T11:57:42;6.17;;;4.20;;
6828;SDS011;17930;48.592;8.868;2023-01-20T12:02:57;7.87;;;4.60;;
6828;SDS011;17930;48.592;8.868;2023-01-20T12:05:27;7.03;;;4.50;;
6828;SDS011;17930;48.592;8.868;2023-01-20T12:08:01;9.03;;;4.80;;
6828;SDS011;17930;48.592;8.868;2023-01-20T12:10:33;6.20;;;3.50;;
6828;SDS011;17930;48.592;8.868;2023-01-20T12:13:02;4.57;;;3.10;;
6828;SDS011;17930;48.592;8.868;2023-01-20T12:15:39;7.73;;;2.90;;
6828;SDS011;17930;48.592;8.868;2023-01-20T12:18:11;5.20;;;3.23;;
6828;SDS011;17930;48.592;8.868;2023-01-20T12:20:44;4.33;;;2.80;;
6828;SDS011;17930;48.592;8.868;2023-01-20T12:23:17;4.70;;;3.70;;
6828;SDS011;17930;48.592;8.868;2023-01-20T12:25:49;6.97;;;3.53;;
6828;SDS011;17930;48.592;8.868;2023-01-20T12:28:22;5.17;;;3.13;;
6828;SDS011;17930;48.592;8.868;2023-01-20T12:30:55;7.97;;;3.13;;
6828;SDS011;17930;48.592;8.868;2023-01-20T12:33:25;4.13;;;2.20;;
6828;SDS011;17930;48.592;8.868;2023-01-20T12:36:02;10.13;;;3.00;;
6828;SDS011;17930;48.592;8.868;2023-01-20T12:38:40;3.43;;;2.40;;
6828;SDS011;17930;48.592;8.868;2023-01-20T12:41:23;4.67;;;2.67;;
6828;SDS011;17930;48.592;8.868;2023-01-20T12:44:00;3.40;;;2.63;;
6828;SDS011;17930;48.592;8.868;2023-01-20T12:46:38;5.23;;;1.97;;
6828;SDS011;17930;48.592;8.868;2023-01-20T12:49:14;2.63;;;1.90;;
6828;SDS011;17930;48.592;8.868;2023-01-20T12:51:55;3.53;;;1.60;;
6828;SDS011;17930;48.592;8.868;2023-01-20T12:54:46;3.33;;;1.40;;
6828;SDS011;17930;48.592;8.868;2023-01-20T12:57:30;3.90;;;1.50;;
6828;SDS011;17930;48.592;8.868;2023-01-20T13:00:10;2.37;;;1.50;;
6828;SDS011;17930;48.592;8.868;2023-01-20T13:02:57;4.07;;;1.70;;
6828;SDS011;17930;48.592;8.868;2023-01-20T13:05:46;2.83;;;1.60;;
6828;SDS011;17930;48.592;8.868;2023-01-20T13:08:27;4.00;;;1.53;;
6828;SDS011;17930;48.592;8.868;2023-01-20T13:11:06;1.80;;;1.50;;
6828;SDS011;17930;48.592;8.868;2023-01-20T13:13:43;1.90;;;1.50;;
6828;SDS011;17930;48.592;8.868;2023-01-20T13:16:20;2.07;;;1.40;;
6828;SDS011;17930;48.592;8.868;2023-01-20T13:18:57;3.57;;;1.60;;
6828;SDS011;17930;48.592;8.868;2023-01-20T13:21:32;4.55;;;1.52;;
6828;SDS011;17930;48.592;8.868;2023-01-20T13:23:59;4.32;;;1.73;;
6828;SDS011;17930;48.592;8.868;2023-01-20T13:26:29;6.88;;;1.90;;
6828;SDS011;17930;48.592;8.868;2023-01-20T13:28:57;4.00;;;2.15;;
6828;SDS011;17930;48.592;8.868;2023-01-20T13:31:35;2.00;;;1.40;;
6828;SDS011;17930;48.592;8.868;2023-01-20T13:39:48;7.68;;;2.33;;
6828;SDS011;17930;48.592;8.868;2023-01-20T13:45:23;2.33;;;1.88;;
6828;SDS011;17930;48.592;8.868;2023-01-20T13:47:53;3.03;;;2.00;;
6828;SDS011;17930;48.592;8.868;2023-01-20T13:50:23;5.25;;;2.17;;
6828;SDS011;17930;48.592;8.868;2023-01-20T13:53:12;3.22;;;2.17;;
6828;SDS011;17930;48.592;8.868;2023-01-20T13:55:50;6.55;;;2.70;;
6828;SDS011;17930;48.592;8.868;2023-01-20T13:58:26;7.07;;;2.83;;
6828;SDS011;17930;48.592;8.868;2023-01-20T14:00:54;5.25;;;2.22;;
6828;SDS011;17930;48.592;8.868;2023-01-20T14:03:23;5.97;;;2.22;;
6828;SDS011;17930;48.592;8.868;2023-01-20T14:05:54;2.53;;;1.70;;
6828;SDS011;17930;48.592;8.868;2023-01-20T14:08:22;1.73;;;1.30;;
6828;SDS011;17930;48.592;8.868;2023-01-20T14:10:51;2.92;;;1.80;;
6828;SDS011;17930;48.592;8.868;2023-01-20T14:13:30;4.10;;;1.73;;
6828;SDS011;17930;48.592;8.868;2023-01-20T14:15:57;4.00;;;2.33;;
6828;SDS011;17930;48.592;8.868;2023-01-20T14:18:24;4.00;;;1.77;;
6828;SDS011;17930;48.592;8.868;2023-01-20T14:20:59;3.67;;;2.00;;
6828;SDS011;17930;48.592;8.868;2023-01-20T14:23:29;1.98;;;1.48;;
6828;SDS011;17930;48.592;8.868;2023-01-20T14:26:02;1.77;;;1.60;;
6828;SDS011;17930;48.592;8.868;2023-01-20T14:28:40;1.67;;;1.55;;
6828;SDS011;17930;48.592;8.868;2023-01-20T14:31:17;1.92;;;1.40;;
6828;SDS011;17930;48.592;8.868;2023-01-20T14:33:47;7.60;;;3.55;;
6828;SDS011;17930;48.592;8.868;2023-01-20T14:36:20;3.90;;;1.73;;
6828;SDS011;17930;48.592;8.868;2023-01-20T14:38:49;2.13;;;1.50;;
6828;SDS011;17930;48.592;8.868;2023-01-20T14:41:21;4.63;;;2.72;;
6828;SDS011;17930;48.592;8.868;2023-01-20T14:43:52;10.35;;;4.90;;
6828;SDS011;17930;48.592;8.868;2023-01-20T14:46:19;5.93;;;3.03;;
6828;SDS011;17930;48.592;8.868;2023-01-20T14:48:46;2.33;;;1.60;;
6828;SDS011;17930;48.592;8.868;2023-01-20T14:51:13;3.50;;;1.98;;
6828;SDS011;17930;48.592;8.868;2023-01-20T14:53:40;6.50;;;3.45;;
6828;SDS011;17930;48.592;8.868;2023-01-20T14:56:13;6.28;;;4.15;;
6828;SDS011;17930;48.592;8.868;2023-01-20T14:58:44;5.65;;;2.60;;
6828;SDS011;17930;48.592;8.868;2023-01-20T15:01:18;3.00;;;1.50;;
6828;SDS011;17930;48.592;8.868;2023-01-20T15:03:58;2.60;;;1.42;;
6828;SDS011;17930;48.592;8.868;2023-01-20T15:06:27;2.10;;;1.85;;
6828;SDS011;17930;48.592;8.868;2023-01-20T15:08:53;4.22;;;3.47;;
6828;SDS011;17930;48.592;8.868;2023-01-20T15:11:22;4.55;;;3.67;;
6828;SDS011;17930;48.592;8.868;2023-01-20T15:14:06;4.85;;;3.10;;
6828;SDS011;17930;48.592;8.868;2023-01-20T15:16:40;5.53;;;1.80;;
6828;SDS011;17930;48.592;8.868;2023-01-20T15:19:14;2.20;;;1.48;;
6828;SDS011;17930;48.592;8.868;2023-01-20T15:22:09;2.60;;;1.85;;
6828;SDS011;17930;48.592;8.868;2023-01-20T15:24:42;4.70;;;2.50;;
6828;SDS011;17930;48.592;8.868;2023-01-20T15:27:18;5.70;;;3.10;;
6828;SDS011;17930;48.592;8.868;2023-01-20T15:29:57;7.57;;;2.80;;
6828;SDS011;17930;48.592;8.868;2023-01-20T15:32:30;5.25;;;2.78;;